Portada
METAR-TAF:

METAR-TAF

Aeroports :

Presidente Prudente, São Paulo, Brasil

latitud: 22-07S, longitud: 051-23W, altitud: 436 m

Observació

L'informe es va fer fa 3 hores i 16 minuts, a les 16:00 UTC
Vent 5 kt del Oest/Sud-Oest
Temperatura 32°C
Humitat 21%
Pressió 1014 hPa
Visibilitat 10 km o més
sense núvols per sota de 1500 mi sense presència de cumulonimbus.

METAR: SBDN 181600Z 24005KT CAVOK 32/07 Q1014

Hora: 17:16 (19:16 UTC)

Pronòstic

L'informe es va fer fa 3 hores i 44 minuts, a les 15:32 UTC
Pronòstic vàlid del 18 a les 18 UTC al 19 a les 06 UTC
Vent 6 kt del Sud-Oest
Visibilitat 10 km o més
Escasses núvols a una alçada de 4500 ft
Evolucionant progressivament
l' 18 a les 20 UTC al 18 a les 22 UTC
Vent 8 kt del Sud-Est
Visibilitat 10 km o més
sense núvols per sota de 1500 mi sense presència de cumulonimbus.

TAF: SBDN 181532Z 1818/1906 23006KT 9999 FEW045 TX32/1818Z TN19/1906Z BECMG 1820/1822 14008KT CAVOK RMK PDW

Observacions i pronòstics meteorològics de més de 4000 aeroports (METAR i TAF).

Les estacions disponibles són els punts grocs i vermells al mapa.

Posi el ratolí al punt desitjat per veure el nom de l'estació.

Feu clic per veure les observacions i els pronòstics meteorològics.

Per canviar el mapa: feu clic els botons verds amb una creu de color negre per apropar; al botó verd amb un guió per allunyar la imatge; o en les fletxes verdes per a mapes adjacents.


METAR-TAF: